sensor_id;sensor_type;location;lat;lon;timestamp;P1;durP1;ratioP1;P2;durP2;ratioP2
30307;SDS011;17114;52.314;8.910;2023-04-15T00:01:47;7.35;;;5.03;;
30307;SDS011;17114;52.314;8.910;2023-04-15T00:04:14;9.43;;;5.82;;
30307;SDS011;17114;52.314;8.910;2023-04-15T00:06:41;8.57;;;5.82;;
30307;SDS011;17114;52.314;8.910;2023-04-15T00:09:08;8.35;;;5.85;;
30307;SDS011;17114;52.314;8.910;2023-04-15T00:11:35;9.55;;;6.53;;
30307;SDS011;17114;52.314;8.910;2023-04-15T00:14:02;8.63;;;5.57;;
30307;SDS011;17114;52.314;8.910;2023-04-15T00:16:29;7.32;;;5.45;;
30307;SDS011;17114;52.314;8.910;2023-04-15T00:18:56;8.20;;;6.35;;
30307;SDS011;17114;52.314;8.910;2023-04-15T00:21:24;8.20;;;5.57;;
30307;SDS011;17114;52.314;8.910;2023-04-15T00:23:55;8.88;;;5.68;;
30307;SDS011;17114;52.314;8.910;2023-04-15T00:26:22;7.28;;;5.78;;
30307;SDS011;17114;52.314;8.910;2023-04-15T00:28:49;10.32;;;5.90;;
30307;SDS011;17114;52.314;8.910;2023-04-15T00:31:17;7.97;;;5.93;;
30307;SDS011;17114;52.314;8.910;2023-04-15T00:33:44;8.38;;;6.05;;
30307;SDS011;17114;52.314;8.910;2023-04-15T00:36:11;9.98;;;6.35;;
30307;SDS011;17114;52.314;8.910;2023-04-15T00:38:38;9.90;;;6.85;;
30307;SDS011;17114;52.314;8.910;2023-04-15T00:41:04;10.05;;;7.00;;
30307;SDS011;17114;52.314;8.910;2023-04-15T00:43:32;9.73;;;6.85;;
30307;SDS011;17114;52.314;8.910;2023-04-15T00:46:00;10.90;;;7.05;;
30307;SDS011;17114;52.314;8.910;2023-04-15T00:48:29;12.52;;;8.18;;
30307;SDS011;17114;52.314;8.910;2023-04-15T00:50:58;9.48;;;7.03;;
30307;SDS011;17114;52.314;8.910;2023-04-15T00:53:24;9.10;;;6.72;;
30307;SDS011;17114;52.314;8.910;2023-04-15T00:55:53;9.82;;;6.82;;
30307;SDS011;17114;52.314;8.910;2023-04-15T00:58:20;11.82;;;6.72;;
30307;SDS011;17114;52.314;8.910;2023-04-15T01:00:47;9.00;;;6.55;;
30307;SDS011;17114;52.314;8.910;2023-04-15T01:03:14;10.82;;;7.05;;
30307;SDS011;17114;52.314;8.910;2023-04-15T01:05:42;11.23;;;7.80;;
30307;SDS011;17114;52.314;8.910;2023-04-15T01:08:08;10.02;;;6.68;;
30307;SDS011;17114;52.314;8.910;2023-04-15T01:10:35;11.10;;;7.28;;
30307;SDS011;17114;52.314;8.910;2023-04-15T01:13:03;9.82;;;7.22;;
30307;SDS011;17114;52.314;8.910;2023-04-15T01:15:30;8.85;;;6.85;;
30307;SDS011;17114;52.314;8.910;2023-04-15T01:17:57;9.85;;;6.35;;
30307;SDS011;17114;52.314;8.910;2023-04-15T01:20:25;9.93;;;6.50;;
30307;SDS011;17114;52.314;8.910;2023-04-15T01:22:53;8.75;;;6.70;;
30307;SDS011;17114;52.314;8.910;2023-04-15T01:25:30;11.52;;;6.57;;
30307;SDS011;17114;52.314;8.910;2023-04-15T01:27:58;10.05;;;6.32;;
30307;SDS011;17114;52.314;8.910;2023-04-15T01:30:26;9.73;;;6.30;;
30307;SDS011;17114;52.314;8.910;2023-04-15T01:32:53;10.27;;;7.00;;
30307;SDS011;17114;52.314;8.910;2023-04-15T01:35:20;10.63;;;7.43;;
30307;SDS011;17114;52.314;8.910;2023-04-15T01:37:49;10.88;;;6.65;;
30307;SDS011;17114;52.314;8.910;2023-04-15T01:40:16;9.70;;;6.95;;
30307;SDS011;17114;52.314;8.910;2023-04-15T01:42:43;9.52;;;6.90;;
30307;SDS011;17114;52.314;8.910;2023-04-15T01:45:11;13.43;;;8.95;;
30307;SDS011;17114;52.314;8.910;2023-04-15T01:47:41;14.50;;;9.05;;
30307;SDS011;17114;52.314;8.910;2023-04-15T01:50:08;14.40;;;9.85;;
30307;SDS011;17114;52.314;8.910;2023-04-15T01:52:35;13.82;;;9.20;;
30307;SDS011;17114;52.314;8.910;2023-04-15T01:55:03;12.80;;;9.10;;
30307;SDS011;17114;52.314;8.910;2023-04-15T01:57:31;12.52;;;8.18;;
30307;SDS011;17114;52.314;8.910;2023-04-15T01:59:58;12.18;;;8.85;;
30307;SDS011;17114;52.314;8.910;2023-04-15T02:02:26;11.63;;;8.82;;
30307;SDS011;17114;52.314;8.910;2023-04-15T02:04:53;12.93;;;8.60;;
30307;SDS011;17114;52.314;8.910;2023-04-15T02:07:20;10.85;;;7.82;;
30307;SDS011;17114;52.314;8.910;2023-04-15T02:09:48;10.20;;;7.68;;
30307;SDS011;17114;52.314;8.910;2023-04-15T02:12:15;10.13;;;7.65;;
30307;SDS011;17114;52.314;8.910;2023-04-15T02:14:45;11.30;;;7.60;;
30307;SDS011;17114;52.314;8.910;2023-04-15T02:17:12;11.23;;;7.72;;
30307;SDS011;17114;52.314;8.910;2023-04-15T02:19:42;11.40;;;8.10;;
30307;SDS011;17114;52.314;8.910;2023-04-15T02:22:09;10.48;;;8.15;;
30307;SDS011;17114;52.314;8.910;2023-04-15T02:24:44;11.75;;;8.75;;
30307;SDS011;17114;52.314;8.910;2023-04-15T02:27:15;11.88;;;8.20;;
30307;SDS011;17114;52.314;8.910;2023-04-15T02:29:43;14.65;;;9.00;;
30307;SDS011;17114;52.314;8.910;2023-04-15T02:32:14;12.52;;;9.02;;
30307;SDS011;17114;52.314;8.910;2023-04-15T02:34:41;12.38;;;9.65;;
30307;SDS011;17114;52.314;8.910;2023-04-15T02:37:09;12.95;;;8.75;;
30307;SDS011;17114;52.314;8.910;2023-04-15T02:39:36;15.25;;;9.32;;
30307;SDS011;17114;52.314;8.910;2023-04-15T02:42:04;12.45;;;8.90;;
30307;SDS011;17114;52.314;8.910;2023-04-15T02:44:34;14.82;;;9.45;;
30307;SDS011;17114;52.314;8.910;2023-04-15T02:47:02;14.07;;;9.75;;
30307;SDS011;17114;52.314;8.910;2023-04-15T02:49:31;18.40;;;9.93;;
30307;SDS011;17114;52.314;8.910;2023-04-15T02:51:59;13.88;;;9.85;;
30307;SDS011;17114;52.314;8.910;2023-04-15T02:54:26;14.75;;;10.43;;
30307;SDS011;17114;52.314;8.910;2023-04-15T02:56:56;17.73;;;10.82;;
30307;SDS011;17114;52.314;8.910;2023-04-15T02:59:23;18.70;;;10.52;;
30307;SDS011;17114;52.314;8.910;2023-04-15T03:01:50;22.77;;;11.40;;
30307;SDS011;17114;52.314;8.910;2023-04-15T03:04:18;17.98;;;10.30;;
30307;SDS011;17114;52.314;8.910;2023-04-15T03:06:45;16.52;;;11.60;;
30307;SDS011;17114;52.314;8.910;2023-04-15T03:09:13;18.60;;;11.25;;
30307;SDS011;17114;52.314;8.910;2023-04-15T03:11:40;17.27;;;12.15;;
30307;SDS011;17114;52.314;8.910;2023-04-15T03:14:07;24.38;;;12.63;;
30307;SDS011;17114;52.314;8.910;2023-04-15T03:16:34;19.55;;;12.13;;
30307;SDS011;17114;52.314;8.910;2023-04-15T03:19:01;17.92;;;12.88;;
30307;SDS011;17114;52.314;8.910;2023-04-15T03:21:29;18.02;;;12.35;;
30307;SDS011;17114;52.314;8.910;2023-04-15T03:23:56;18.05;;;12.27;;
30307;SDS011;17114;52.314;8.910;2023-04-15T03:26:30;18.23;;;12.65;;
30307;SDS011;17114;52.314;8.910;2023-04-15T03:28:57;21.13;;;12.82;;
30307;SDS011;17114;52.314;8.910;2023-04-15T03:31:25;21.35;;;13.65;;
30307;SDS011;17114;52.314;8.910;2023-04-15T03:33:52;19.80;;;13.15;;
30307;SDS011;17114;52.314;8.910;2023-04-15T03:36:19;19.33;;;12.93;;
30307;SDS011;17114;52.314;8.910;2023-04-15T03:38:46;20.58;;;13.20;;
30307;SDS011;17114;52.314;8.910;2023-04-15T03:41:14;22.23;;;14.30;;
30307;SDS011;17114;52.314;8.910;2023-04-15T03:43:41;20.75;;;13.75;;
30307;SDS011;17114;52.314;8.910;2023-04-15T03:46:08;25.58;;;14.05;;
30307;SDS011;17114;52.314;8.910;2023-04-15T03:48:44;22.73;;;14.88;;
30307;SDS011;17114;52.314;8.910;2023-04-15T03:51:12;23.95;;;14.88;;
30307;SDS011;17114;52.314;8.910;2023-04-15T03:53:39;21.42;;;13.40;;
30307;SDS011;17114;52.314;8.910;2023-04-15T03:56:06;25.30;;;14.50;;
30307;SDS011;17114;52.314;8.910;2023-04-15T03:58:33;24.65;;;14.50;;
30307;SDS011;17114;52.314;8.910;2023-04-15T04:01:00;24.27;;;15.35;;
30307;SDS011;17114;52.314;8.910;2023-04-15T04:03:27;25.95;;;15.48;;
30307;SDS011;17114;52.314;8.910;2023-04-15T04:05:54;29.38;;;17.08;;
30307;SDS011;17114;52.314;8.910;2023-04-15T04:08:21;24.13;;;16.35;;
30307;SDS011;17114;52.314;8.910;2023-04-15T04:10:48;25.15;;;15.95;;
30307;SDS011;17114;52.314;8.910;2023-04-15T04:13:15;30.90;;;16.98;;
30307;SDS011;17114;52.314;8.910;2023-04-15T04:15:42;28.73;;;17.25;;
30307;SDS011;17114;52.314;8.910;2023-04-15T04:18:09;24.90;;;16.05;;
30307;SDS011;17114;52.314;8.910;2023-04-15T04:20:37;26.00;;;17.25;;
30307;SDS011;17114;52.314;8.910;2023-04-15T04:23:04;30.55;;;17.75;;
30307;SDS011;17114;52.314;8.910;2023-04-15T04:25:31;26.33;;;16.65;;
30307;SDS011;17114;52.314;8.910;2023-04-15T04:27:58;25.52;;;16.83;;
30307;SDS011;17114;52.314;8.910;2023-04-15T04:30:25;27.60;;;17.42;;
30307;SDS011;17114;52.314;8.910;2023-04-15T04:32:52;26.40;;;16.80;;
30307;SDS011;17114;52.314;8.910;2023-04-15T04:35:19;27.38;;;17.83;;
30307;SDS011;17114;52.314;8.910;2023-04-15T04:37:47;31.63;;;19.05;;
30307;SDS011;17114;52.314;8.910;2023-04-15T04:40:14;30.30;;;18.50;;
30307;SDS011;17114;52.314;8.910;2023-04-15T04:42:41;29.60;;;18.60;;
30307;SDS011;17114;52.314;8.910;2023-04-15T04:45:08;29.45;;;18.42;;
30307;SDS011;17114;52.314;8.910;2023-04-15T04:47:35;29.52;;;19.33;;
30307;SDS011;17114;52.314;8.910;2023-04-15T04:50:02;31.52;;;18.27;;
30307;SDS011;17114;52.314;8.910;2023-04-15T04:52:30;31.52;;;19.75;;
30307;SDS011;17114;52.314;8.910;2023-04-15T04:54:57;30.60;;;18.88;;
30307;SDS011;17114;52.314;8.910;2023-04-15T04:57:24;31.08;;;18.95;;
30307;SDS011;17114;52.314;8.910;2023-04-15T04:59:51;31.67;;;19.40;;
30307;SDS011;17114;52.314;8.910;2023-04-15T05:02:19;32.08;;;19.20;;
30307;SDS011;17114;52.314;8.910;2023-04-15T05:04:46;32.15;;;20.05;;
30307;SDS011;17114;52.314;8.910;2023-04-15T05:07:15;31.70;;;19.52;;
30307;SDS011;17114;52.314;8.910;2023-04-15T05:09:42;31.33;;;19.10;;
30307;SDS011;17114;52.314;8.910;2023-04-15T05:12:09;34.97;;;20.67;;
30307;SDS011;17114;52.314;8.910;2023-04-15T05:14:40;33.13;;;19.42;;
30307;SDS011;17114;52.314;8.910;2023-04-15T05:17:07;34.92;;;19.95;;
30307;SDS011;17114;52.314;8.910;2023-04-15T05:19:34;37.30;;;21.08;;
30307;SDS011;17114;52.314;8.910;2023-04-15T05:22:01;34.65;;;20.25;;
30307;SDS011;17114;52.314;8.910;2023-04-15T05:24:28;39.08;;;21.48;;
30307;SDS011;17114;52.314;8.910;2023-04-15T05:26:56;35.90;;;21.30;;
30307;SDS011;17114;52.314;8.910;2023-04-15T05:29:23;37.40;;;21.80;;
30307;SDS011;17114;52.314;8.910;2023-04-15T05:31:50;36.75;;;21.73;;
30307;SDS011;17114;52.314;8.910;2023-04-15T05:34:17;37.25;;;21.20;;
30307;SDS011;17114;52.314;8.910;2023-04-15T05:36:45;37.88;;;21.52;;
30307;SDS011;17114;52.314;8.910;2023-04-15T05:39:12;35.63;;;21.08;;
30307;SDS011;17114;52.314;8.910;2023-04-15T05:41:39;37.08;;;20.52;;
30307;SDS011;17114;52.314;8.910;2023-04-15T05:44:06;37.22;;;20.20;;
30307;SDS011;17114;52.314;8.910;2023-04-15T05:46:33;38.33;;;21.83;;
30307;SDS011;17114;52.314;8.910;2023-04-15T05:49:00;35.38;;;20.27;;
30307;SDS011;17114;52.314;8.910;2023-04-15T05:51:28;34.45;;;19.90;;
30307;SDS011;17114;52.314;8.910;2023-04-15T05:53:55;38.58;;;22.30;;
30307;SDS011;17114;52.314;8.910;2023-04-15T05:56:22;37.97;;;20.63;;
30307;SDS011;17114;52.314;8.910;2023-04-15T05:58:50;35.58;;;20.92;;
30307;SDS011;17114;52.314;8.910;2023-04-15T06:01:19;42.00;;;22.20;;
30307;SDS011;17114;52.314;8.910;2023-04-15T06:03:46;39.97;;;22.55;;
30307;SDS011;17114;52.314;8.910;2023-04-15T06:06:14;42.88;;;22.05;;
30307;SDS011;17114;52.314;8.910;2023-04-15T06:08:41;44.75;;;22.50;;
30307;SDS011;17114;52.314;8.910;2023-04-15T06:11:08;41.05;;;23.23;;
30307;SDS011;17114;52.314;8.910;2023-04-15T06:13:35;40.15;;;22.45;;
30307;SDS011;17114;52.314;8.910;2023-04-15T06:16:02;41.75;;;23.00;;
30307;SDS011;17114;52.314;8.910;2023-04-15T06:18:29;42.70;;;22.35;;
30307;SDS011;17114;52.314;8.910;2023-04-15T06:20:56;44.47;;;22.90;;
30307;SDS011;17114;52.314;8.910;2023-04-15T06:23:23;42.47;;;21.77;;
30307;SDS011;17114;52.314;8.910;2023-04-15T06:25:53;41.00;;;22.08;;
30307;SDS011;17114;52.314;8.910;2023-04-15T06:28:20;39.97;;;22.02;;
30307;SDS011;17114;52.314;8.910;2023-04-15T06:30:47;42.58;;;23.23;;
30307;SDS011;17114;52.314;8.910;2023-04-15T06:33:14;44.90;;;23.33;;
30307;SDS011;17114;52.314;8.910;2023-04-15T06:35:41;46.60;;;24.15;;
30307;SDS011;17114;52.314;8.910;2023-04-15T06:38:08;45.85;;;24.42;;
30307;SDS011;17114;52.314;8.910;2023-04-15T06:40:35;43.10;;;23.50;;
30307;SDS011;17114;52.314;8.910;2023-04-15T06:43:02;46.38;;;23.75;;
30307;SDS011;17114;52.314;8.910;2023-04-15T06:45:30;45.75;;;24.52;;
30307;SDS011;17114;52.314;8.910;2023-04-15T06:47:57;46.58;;;24.85;;
30307;SDS011;17114;52.314;8.910;2023-04-15T06:50:25;48.00;;;24.63;;
30307;SDS011;17114;52.314;8.910;2023-04-15T06:52:53;46.65;;;25.40;;
30307;SDS011;17114;52.314;8.910;2023-04-15T06:55:21;47.50;;;25.30;;
30307;SDS011;17114;52.314;8.910;2023-04-15T06:57:48;45.78;;;25.17;;
30307;SDS011;17114;52.314;8.910;2023-04-15T07:00:15;47.80;;;26.13;;
30307;SDS011;17114;52.314;8.910;2023-04-15T07:02:43;49.35;;;26.02;;
30307;SDS011;17114;52.314;8.910;2023-04-15T07:05:10;48.13;;;25.40;;
30307;SDS011;17114;52.314;8.910;2023-04-15T07:07:38;45.42;;;25.25;;
30307;SDS011;17114;52.314;8.910;2023-04-15T07:10:05;48.13;;;26.75;;
30307;SDS011;17114;52.314;8.910;2023-04-15T07:12:33;51.58;;;26.40;;
30307;SDS011;17114;52.314;8.910;2023-04-15T07:15:01;50.40;;;27.33;;
30307;SDS011;17114;52.314;8.910;2023-04-15T07:17:28;52.45;;;27.92;;
30307;SDS011;17114;52.314;8.910;2023-04-15T07:19:56;55.15;;;27.23;;
30307;SDS011;17114;52.314;8.910;2023-04-15T07:22:23;50.90;;;28.58;;
30307;SDS011;17114;52.314;8.910;2023-04-15T07:24:51;54.83;;;28.10;;
30307;SDS011;17114;52.314;8.910;2023-04-15T07:27:18;63.65;;;28.85;;
30307;SDS011;17114;52.314;8.910;2023-04-15T07:29:46;53.92;;;29.08;;
30307;SDS011;17114;52.314;8.910;2023-04-15T07:32:14;49.33;;;26.67;;
30307;SDS011;17114;52.314;8.910;2023-04-15T07:34:41;48.20;;;26.52;;
30307;SDS011;17114;52.314;8.910;2023-04-15T07:37:09;52.65;;;27.10;;
30307;SDS011;17114;52.314;8.910;2023-04-15T07:39:36;47.20;;;24.95;;
30307;SDS011;17114;52.314;8.910;2023-04-15T07:42:03;43.00;;;24.30;;
30307;SDS011;17114;52.314;8.910;2023-04-15T07:44:31;45.03;;;24.20;;
30307;SDS011;17114;52.314;8.910;2023-04-15T07:46:58;46.75;;;24.58;;
30307;SDS011;17114;52.314;8.910;2023-04-15T07:49:25;43.15;;;24.00;;
30307;SDS011;17114;52.314;8.910;2023-04-15T07:51:52;48.53;;;25.02;;
30307;SDS011;17114;52.314;8.910;2023-04-15T07:54:19;42.55;;;22.88;;
30307;SDS011;17114;52.314;8.910;2023-04-15T07:56:46;41.83;;;23.10;;
30307;SDS011;17114;52.314;8.910;2023-04-15T07:59:15;45.65;;;22.83;;
30307;SDS011;17114;52.314;8.910;2023-04-15T08:01:43;38.72;;;22.55;;
30307;SDS011;17114;52.314;8.910;2023-04-15T08:04:10;42.25;;;23.13;;
30307;SDS011;17114;52.314;8.910;2023-04-15T08:06:37;42.92;;;21.98;;
30307;SDS011;17114;52.314;8.910;2023-04-15T08:09:05;38.30;;;21.60;;
30307;SDS011;17114;52.314;8.910;2023-04-15T08:11:33;40.85;;;22.42;;
30307;SDS011;17114;52.314;8.910;2023-04-15T08:14:01;40.22;;;23.38;;
30307;SDS011;17114;52.314;8.910;2023-04-15T08:16:30;41.75;;;23.17;;
30307;SDS011;17114;52.314;8.910;2023-04-15T08:18:57;40.08;;;23.05;;
30307;SDS011;17114;52.314;8.910;2023-04-15T08:21:25;38.88;;;22.90;;
30307;SDS011;17114;52.314;8.910;2023-04-15T08:23:52;44.38;;;23.83;;
30307;SDS011;17114;52.314;8.910;2023-04-15T08:26:20;42.03;;;24.02;;
30307;SDS011;17114;52.314;8.910;2023-04-15T08:28:47;41.08;;;22.67;;
30307;SDS011;17114;52.314;8.910;2023-04-15T08:31:15;38.60;;;22.30;;
30307;SDS011;17114;52.314;8.910;2023-04-15T08:33:43;41.90;;;23.48;;
30307;SDS011;17114;52.314;8.910;2023-04-15T08:36:12;39.97;;;22.33;;
30307;SDS011;17114;52.314;8.910;2023-04-15T08:38:39;43.40;;;24.77;;
30307;SDS011;17114;52.314;8.910;2023-04-15T08:41:08;38.97;;;22.40;;
30307;SDS011;17114;52.314;8.910;2023-04-15T08:46:32;39.78;;;23.25;;
30307;SDS011;17114;52.314;8.910;2023-04-15T08:49:02;37.47;;;22.30;;
30307;SDS011;17114;52.314;8.910;2023-04-15T08:51:30;37.75;;;21.95;;
30307;SDS011;17114;52.314;8.910;2023-04-15T08:53:59;40.10;;;21.67;;
30307;SDS011;17114;52.314;8.910;2023-04-15T08:56:27;35.72;;;20.13;;
30307;SDS011;17114;52.314;8.910;2023-04-15T08:58:58;36.33;;;20.90;;
30307;SDS011;17114;52.314;8.910;2023-04-15T09:01:26;36.80;;;21.88;;
30307;SDS011;17114;52.314;8.910;2023-04-15T09:03:53;34.95;;;20.25;;
30307;SDS011;17114;52.314;8.910;2023-04-15T09:06:23;39.60;;;21.45;;
30307;SDS011;17114;52.314;8.910;2023-04-15T09:08:52;37.08;;;21.08;;
30307;SDS011;17114;52.314;8.910;2023-04-15T09:11:20;38.78;;;20.38;;
30307;SDS011;17114;52.314;8.910;2023-04-15T09:13:48;36.05;;;20.55;;
30307;SDS011;17114;52.314;8.910;2023-04-15T09:16:15;33.72;;;20.08;;
30307;SDS011;17114;52.314;8.910;2023-04-15T09:18:42;32.00;;;19.13;;
30307;SDS011;17114;52.314;8.910;2023-04-15T09:21:11;30.13;;;18.05;;
30307;SDS011;17114;52.314;8.910;2023-04-15T09:24:03;32.53;;;18.85;;
30307;SDS011;17114;52.314;8.910;2023-04-15T09:26:34;30.20;;;19.05;;
30307;SDS011;17114;52.314;8.910;2023-04-15T09:29:06;27.52;;;17.02;;
30307;SDS011;17114;52.314;8.910;2023-04-15T09:31:36;28.02;;;16.67;;
30307;SDS011;17114;52.314;8.910;2023-04-15T09:34:04;27.90;;;17.70;;
30307;SDS011;17114;52.314;8.910;2023-04-15T09:36:54;28.70;;;17.77;;
30307;SDS011;17114;52.314;8.910;2023-04-15T09:39:21;29.83;;;17.50;;
30307;SDS011;17114;52.314;8.910;2023-04-15T09:42:05;28.55;;;17.95;;
30307;SDS011;17114;52.314;8.910;2023-04-15T09:44:33;29.45;;;17.38;;
30307;SDS011;17114;52.314;8.910;2023-04-15T09:47:02;29.88;;;18.30;;
30307;SDS011;17114;52.314;8.910;2023-04-15T09:49:30;27.63;;;16.92;;
30307;SDS011;17114;52.314;8.910;2023-04-15T09:52:00;26.80;;;16.98;;
30307;SDS011;17114;52.314;8.910;2023-04-15T09:54:32;27.27;;;16.15;;
30307;SDS011;17114;52.314;8.910;2023-04-15T09:57:08;27.90;;;17.35;;
30307;SDS011;17114;52.314;8.910;2023-04-15T09:59:37;27.55;;;16.83;;
30307;SDS011;17114;52.314;8.910;2023-04-15T10:02:06;27.08;;;16.73;;
30307;SDS011;17114;52.314;8.910;2023-04-15T10:04:35;28.20;;;17.75;;
30307;SDS011;17114;52.314;8.910;2023-04-15T10:07:07;25.02;;;15.82;;
30307;SDS011;17114;52.314;8.910;2023-04-15T10:09:35;28.35;;;16.52;;
30307;SDS011;17114;52.314;8.910;2023-04-15T10:12:05;28.10;;;17.67;;
30307;SDS011;17114;52.314;8.910;2023-04-15T10:14:34;25.35;;;16.85;;
30307;SDS011;17114;52.314;8.910;2023-04-15T10:17:04;27.95;;;17.27;;
30307;SDS011;17114;52.314;8.910;2023-04-15T10:19:33;24.70;;;16.77;;
30307;SDS011;17114;52.314;8.910;2023-04-15T10:22:03;24.15;;;16.67;;
30307;SDS011;17114;52.314;8.910;2023-04-15T10:24:32;24.75;;;17.00;;
30307;SDS011;17114;52.314;8.910;2023-04-15T10:26:59;24.58;;;17.30;;
30307;SDS011;17114;52.314;8.910;2023-04-15T10:29:27;24.17;;;16.52;;
30307;SDS011;17114;52.314;8.910;2023-04-15T10:31:55;24.30;;;16.52;;
30307;SDS011;17114;52.314;8.910;2023-04-15T10:34:23;22.77;;;15.20;;
30307;SDS011;17114;52.314;8.910;2023-04-15T10:36:53;24.33;;;15.85;;
30307;SDS011;17114;52.314;8.910;2023-04-15T10:42:07;22.40;;;15.50;;
30307;SDS011;17114;52.314;8.910;2023-04-15T10:44:40;23.80;;;16.02;;
30307;SDS011;17114;52.314;8.910;2023-04-15T10:47:10;22.05;;;15.25;;
30307;SDS011;17114;52.314;8.910;2023-04-15T10:49:56;19.10;;;14.43;;
30307;SDS011;17114;52.314;8.910;2023-04-15T10:52:26;18.95;;;14.60;;
30307;SDS011;17114;52.314;8.910;2023-04-15T10:55:30;18.65;;;14.38;;
30307;SDS011;17114;52.314;8.910;2023-04-15T11:00:19;17.60;;;14.00;;
30307;SDS011;17114;52.314;8.910;2023-04-15T11:02:54;16.75;;;13.52;;
30307;SDS011;17114;52.314;8.910;2023-04-15T11:08:17;17.35;;;14.00;;
30307;SDS011;17114;52.314;8.910;2023-04-15T11:13:17;16.92;;;14.25;;
30307;SDS011;17114;52.314;8.910;2023-04-15T11:15:48;17.70;;;14.15;;
30307;SDS011;17114;52.314;8.910;2023-04-15T11:18:23;17.75;;;14.35;;
30307;SDS011;17114;52.314;8.910;2023-04-15T11:21:03;16.60;;;13.35;;
30307;SDS011;17114;52.314;8.910;2023-04-15T11:23:39;17.35;;;14.10;;
30307;SDS011;17114;52.314;8.910;2023-04-15T11:26:12;24.35;;;18.13;;
30307;SDS011;17114;52.314;8.910;2023-04-15T11:28:41;20.40;;;16.58;;
30307;SDS011;17114;52.314;8.910;2023-04-15T11:31:16;18.42;;;14.60;;
30307;SDS011;17114;52.314;8.910;2023-04-15T11:33:46;18.33;;;15.20;;
30307;SDS011;17114;52.314;8.910;2023-04-15T11:36:23;20.20;;;16.40;;
30307;SDS011;17114;52.314;8.910;2023-04-15T11:38:53;20.33;;;15.30;;
30307;SDS011;17114;52.314;8.910;2023-04-15T11:41:21;19.42;;;15.60;;
30307;SDS011;17114;52.314;8.910;2023-04-15T11:43:50;20.50;;;15.30;;
30307;SDS011;17114;52.314;8.910;2023-04-15T11:46:18;17.67;;;14.55;;
30307;SDS011;17114;52.314;8.910;2023-04-15T11:48:47;18.60;;;15.30;;
30307;SDS011;17114;52.314;8.910;2023-04-15T11:51:14;20.80;;;17.42;;
30307;SDS011;17114;52.314;8.910;2023-04-15T11:53:42;20.33;;;16.85;;
30307;SDS011;17114;52.314;8.910;2023-04-15T11:56:22;21.17;;;16.85;;
30307;SDS011;17114;52.314;8.910;2023-04-15T11:58:54;20.48;;;16.23;;
30307;SDS011;17114;52.314;8.910;2023-04-15T12:01:45;21.73;;;16.80;;
30307;SDS011;17114;52.314;8.910;2023-04-15T12:04:14;21.50;;;16.50;;
30307;SDS011;17114;52.314;8.910;2023-04-15T12:06:48;21.40;;;17.08;;
30307;SDS011;17114;52.314;8.910;2023-04-15T12:09:15;21.40;;;17.02;;
30307;SDS011;17114;52.314;8.910;2023-04-15T12:11:49;21.27;;;16.00;;
30307;SDS011;17114;52.314;8.910;2023-04-15T12:14:25;21.85;;;16.42;;
30307;SDS011;17114;52.314;8.910;2023-04-15T12:17:01;22.83;;;16.83;;
30307;SDS011;17114;52.314;8.910;2023-04-15T12:19:33;23.85;;;15.85;;
30307;SDS011;17114;52.314;8.910;2023-04-15T12:22:03;24.45;;;19.45;;
30307;SDS011;17114;52.314;8.910;2023-04-15T12:24:32;23.40;;;17.98;;
30307;SDS011;17114;52.314;8.910;2023-04-15T12:27:02;23.70;;;17.35;;
30307;SDS011;17114;52.314;8.910;2023-04-15T12:29:34;23.70;;;17.55;;
30307;SDS011;17114;52.314;8.910;2023-04-15T12:32:04;23.75;;;17.10;;
30307;SDS011;17114;52.314;8.910;2023-04-15T12:34:40;26.52;;;17.77;;
30307;SDS011;17114;52.314;8.910;2023-04-15T12:37:09;25.67;;;18.35;;
30307;SDS011;17114;52.314;8.910;2023-04-15T12:39:38;27.00;;;18.30;;
30307;SDS011;17114;52.314;8.910;2023-04-15T12:42:07;26.13;;;18.33;;
30307;SDS011;17114;52.314;8.910;2023-04-15T12:44:36;25.00;;;17.75;;
30307;SDS011;17114;52.314;8.910;2023-04-15T12:47:03;29.35;;;19.25;;
30307;SDS011;17114;52.314;8.910;2023-04-15T12:49:32;27.35;;;19.05;;
30307;SDS011;17114;52.314;8.910;2023-04-15T12:52:00;29.75;;;20.08;;
30307;SDS011;17114;52.314;8.910;2023-04-15T12:54:28;26.92;;;19.55;;
30307;SDS011;17114;52.314;8.910;2023-04-15T12:56:56;27.75;;;20.40;;
30307;SDS011;17114;52.314;8.910;2023-04-15T12:59:24;27.50;;;19.17;;
30307;SDS011;17114;52.314;8.910;2023-04-15T13:01:52;31.00;;;20.75;;
30307;SDS011;17114;52.314;8.910;2023-04-15T13:04:20;29.77;;;19.50;;
30307;SDS011;17114;52.314;8.910;2023-04-15T13:06:47;28.83;;;19.75;;
30307;SDS011;17114;52.314;8.910;2023-04-15T13:09:15;31.45;;;20.33;;
30307;SDS011;17114;52.314;8.910;2023-04-15T13:11:43;32.80;;;23.08;;
30307;SDS011;17114;52.314;8.910;2023-04-15T13:14:11;36.92;;;26.88;;
30307;SDS011;17114;52.314;8.910;2023-04-15T13:16:38;38.22;;;25.48;;
30307;SDS011;17114;52.314;8.910;2023-04-15T13:19:06;35.80;;;24.00;;
30307;SDS011;17114;52.314;8.910;2023-04-15T13:21:33;38.28;;;24.33;;
30307;SDS011;17114;52.314;8.910;2023-04-15T13:24:02;36.03;;;23.55;;
30307;SDS011;17114;52.314;8.910;2023-04-15T13:26:30;36.20;;;23.48;;
30307;SDS011;17114;52.314;8.910;2023-04-15T13:28:58;39.33;;;25.55;;
30307;SDS011;17114;52.314;8.910;2023-04-15T13:31:26;40.20;;;24.83;;
30307;SDS011;17114;52.314;8.910;2023-04-15T13:33:53;42.05;;;26.02;;
30307;SDS011;17114;52.314;8.910;2023-04-15T13:36:22;42.28;;;25.92;;
30307;SDS011;17114;52.314;8.910;2023-04-15T13:38:49;47.65;;;28.85;;
30307;SDS011;17114;52.314;8.910;2023-04-15T13:41:17;47.40;;;28.52;;
30307;SDS011;17114;52.314;8.910;2023-04-15T13:43:45;54.05;;;33.08;;
30307;SDS011;17114;52.314;8.910;2023-04-15T13:46:12;61.47;;;36.30;;
30307;SDS011;17114;52.314;8.910;2023-04-15T13:48:40;54.63;;;32.13;;
30307;SDS011;17114;52.314;8.910;2023-04-15T13:51:07;61.30;;;34.80;;
30307;SDS011;17114;52.314;8.910;2023-04-15T13:53:34;54.83;;;31.88;;
30307;SDS011;17114;52.314;8.910;2023-04-15T13:56:05;57.25;;;31.95;;
30307;SDS011;17114;52.314;8.910;2023-04-15T13:58:33;63.33;;;33.83;;
30307;SDS011;17114;52.314;8.910;2023-04-15T14:01:01;61.92;;;35.10;;
30307;SDS011;17114;52.314;8.910;2023-04-15T14:03:31;65.55;;;35.85;;
30307;SDS011;17114;52.314;8.910;2023-04-15T14:06:00;61.55;;;36.00;;
30307;SDS011;17114;52.314;8.910;2023-04-15T14:08:27;70.65;;;37.42;;
30307;SDS011;17114;52.314;8.910;2023-04-15T14:10:56;69.72;;;38.95;;
30307;SDS011;17114;52.314;8.910;2023-04-15T14:13:23;73.43;;;39.92;;
30307;SDS011;17114;52.314;8.910;2023-04-15T14:15:51;72.00;;;38.92;;
30307;SDS011;17114;52.314;8.910;2023-04-15T14:18:18;73.53;;;39.33;;
30307;SDS011;17114;52.314;8.910;2023-04-15T14:20:46;75.45;;;39.78;;
30307;SDS011;17114;52.314;8.910;2023-04-15T14:23:13;74.43;;;37.80;;
30307;SDS011;17114;52.314;8.910;2023-04-15T14:25:41;80.13;;;40.67;;
30307;SDS011;17114;52.314;8.910;2023-04-15T14:28:12;77.35;;;41.58;;
30307;SDS011;17114;52.314;8.910;2023-04-15T14:30:40;83.25;;;44.08;;
30307;SDS011;17114;52.314;8.910;2023-04-15T14:33:07;89.50;;;42.58;;
30307;SDS011;17114;52.314;8.910;2023-04-15T14:35:35;84.65;;;43.75;;
30307;SDS011;17114;52.314;8.910;2023-04-15T14:38:02;87.88;;;43.60;;
30307;SDS011;17114;52.314;8.910;2023-04-15T14:40:32;91.45;;;44.00;;
30307;SDS011;17114;52.314;8.910;2023-04-15T14:43:00;99.68;;;45.25;;
30307;SDS011;17114;52.314;8.910;2023-04-15T14:45:29;96.97;;;46.72;;
30307;SDS011;17114;52.314;8.910;2023-04-15T14:47:57;91.55;;;44.20;;